Back to top

Casper, Wyoming Weather

Natrona County International Airport, Casper, WY: 8/22/2019 07:53
Visibility10 statute milesclear sky
View 7-Day Forecast
Area Summary
Sky/CloudsSky Clear
Weather [last 24 hours]None [rain began 18:23, thunderstorm began 18:19; rain ended 19:14 ]
Pressure29.96 in.Hg (1015 hPa)
Dew Point45 °F (7.2 °C)
Relative Humidity57.4 %
Last 24-Hour Precip.Trace
Reading TimePrecipitation
6-hr ending 8/21@23:53Trace
Temperature60.1 °F (15.6 °C)red thermometer
Reading TimeMinimum to Maximum Temperature
6-hr ending 8/22@05:5354 °F to 66 °F (12.2 °C to 18.9 °C)
6-hr ending 8/21@23:5364.9 °F to 80.1 °F (18.3 °C to 26.7 °C)
6-hr ending 8/21@11:5351.1 °F to 81 °F (10.6 °C to 27.2 °C)
24-hr ending 8/22@00:5351.1 °F to 91 °F (10.6 °C to 32.8 °C)
Wind4.6 MPH (4 KT) green arrow pointing 45 degrees
Wind FromNortheast (040 Degrees)
Rolling 24-hr Peak Wind41.4 MPH (36 KT) on 8/21@19:08
Rolling 24-hr Peak Wind FromNorth (010 Degrees)
Twilight Begins05:50Sunshine Yesterday
Sunrise06:20N/A
Sunset19:56
Twilight Ends20:26
METARKCPR 221353Z 04004KT 10SM CLR 16/07 A2996 RMK AO2 SLP083 T01560072